Portada
METAR-TAF:

METAR-TAF

Aeroports :

Funchal, Madeira, Portugal

latitud: 32-41-52N, longitud: 016-46-28W, altitud: 59 m

Observació

L'informe es va fer fa 32 minuts, a les 03:00 UTC
Vent 15 kt del Nord/Nord-Est
Temperatura 18°C
Humitat 64%
Pressió 1024 hPa
Visibilitat 10 km o més
Núvols disperses a una alçada de 1600 ft

METAR: LPMA 070300Z 02015KT 9999 SCT016 18/11 Q1024

Hora: 03:32 (03:32 UTC)

Pronòstic

L'informe es va fer fa 4 hores i 2 minuts, a les 23:30 UTC
Pronòstic vàlid del 07 a les 00 UTC al 07 a les 24 UTC
Vent 13 kt del Nord/Nord-Est
Visibilitat 10 km o més
Núvols disperses a una alçada de 1500 ft
Núvols disperses a una alçada de 3000 ft
Temporalment
l' 07 a les 00 UTC al 07 a les 24 UTC
Cel ennuvolat a una alçada de 1500 ft
Probabilitat 30% :
Temporalment
l' 07 a les 00 UTC al 07 a les 06 UTC
Vent 18 kt del Nord amb ràfegues de 30 kt

TAF: LPMA 062330Z 0700/0724 02013KT 9999 SCT015 SCT030 TEMPO 0700/0724 BKN015 PROB30 TEMPO 0700/0706 01018G30KT

Observacions i pronòstics meteorològics de més de 4000 aeroports (METAR i TAF).

Les estacions disponibles són els punts grocs i vermells al mapa.

Posi el ratolí al punt desitjat per veure el nom de l'estació.

Feu clic per veure les observacions i els pronòstics meteorològics.

Per canviar el mapa: feu clic els botons verds amb una creu de color negre per apropar; al botó verd amb un guió per allunyar la imatge; o en les fletxes verdes per a mapes adjacents.


METAR-TAF: